AEA8595 LEPA-LEBB
Flight info
| Callsign | AEA8595 |
|---|---|
| Flight time | N/A |
| Altitude | 33000 |
| Route | DRAGO N863 REBUL M601 CEGAM |
| Aircraft | B736/M-VGDW/C |
Departure
| Time | 2026-05-05 10:54 |
|---|---|
| Airport | Palma de Mallorca Airport (LEPA) |
Arrival
| Time | N/A |
|---|---|
| Airport | Bilbao Airport (LEBB) |
| Time | Latitude | Longitude | Altitude | Speed | Heading |
|---|---|---|---|---|---|
| 2026-05-05 10:32 | 39.54997 | 2.72672 | 42 ft | 0 kts | 149° |
| 2026-05-05 10:41 | 39.55000 | 2.72670 | 42 ft | 2 kts | 148° |
| 2026-05-05 10:41 | 39.55012 | 2.72658 | 42 ft | 2 kts | 132° |
| 2026-05-05 10:41 | 39.55021 | 2.72642 | 42 ft | 2 kts | 121° |
| 2026-05-05 10:42 | 39.55031 | 2.72606 | 42 ft | 2 kts | 96° |
| 2026-05-05 10:42 | 39.55031 | 2.72587 | 42 ft | 2 kts | 84° |
| 2026-05-05 10:42 | 39.55028 | 2.72568 | 42 ft | 2 kts | 72° |
| 2026-05-05 10:43 | 39.55022 | 2.72550 | 42 ft | 2 kts | 59° |
| 2026-05-05 10:43 | 39.55014 | 2.72534 | 42 ft | 2 kts | 59° |
| 2026-05-05 10:43 | 39.55007 | 2.72518 | 42 ft | 1 kts | 59° |
| 2026-05-05 10:43 | 39.55006 | 2.72517 | 42 ft | 0 kts | 59° |
| 2026-05-05 10:46 | 39.55025 | 2.72560 | 42 ft | 14 kts | 61° |
| 2026-05-05 10:46 | 39.55076 | 2.72681 | 42 ft | 15 kts | 60° |
| 2026-05-05 10:46 | 39.55133 | 2.72799 | 42 ft | 15 kts | 58° |
| 2026-05-05 10:47 | 39.55190 | 2.72920 | 42 ft | 15 kts | 58° |
| 2026-05-05 10:47 | 39.55248 | 2.73042 | 42 ft | 15 kts | 61° |
| 2026-05-05 10:47 | 39.55306 | 2.73163 | 42 ft | 16 kts | 55° |
| 2026-05-05 10:47 | 39.55369 | 2.73294 | 43 ft | 17 kts | 59° |
| 2026-05-05 10:48 | 39.55431 | 2.73424 | 43 ft | 15 kts | 58° |
| 2026-05-05 10:48 | 39.55486 | 2.73536 | 43 ft | 14 kts | 44° |
| 2026-05-05 10:48 | 39.55579 | 2.73529 | 43 ft | 15 kts | 331° |
| 2026-05-05 10:48 | 39.55677 | 2.73553 | 43 ft | 16 kts | 51° |
| 2026-05-05 10:49 | 39.55757 | 2.73732 | 43 ft | 30 kts | 60° |
| 2026-05-05 10:49 | 39.55877 | 2.73969 | 44 ft | 31 kts | 60° |
| 2026-05-05 10:49 | 39.55976 | 2.74187 | 44 ft | 24 kts | 47° |
| 2026-05-05 10:49 | 39.56097 | 2.74306 | 44 ft | 19 kts | 33° |
| 2026-05-05 10:50 | 39.56145 | 2.74345 | 44 ft | 2 kts | 31° |
| 2026-05-05 10:50 | 39.56147 | 2.74346 | 44 ft | 0 kts | 30° |
| 2026-05-05 10:52 | 39.56147 | 2.74347 | 44 ft | 0 kts | 30° |
| 2026-05-05 10:52 | 39.56205 | 2.74358 | 44 ft | 12 kts | 342° |
| 2026-05-05 10:52 | 39.56226 | 2.74267 | 44 ft | 11 kts | 251° |
| 2026-05-05 10:53 | 39.56187 | 2.74174 | 44 ft | 11 kts | 241° |
| 2026-05-05 10:53 | 39.56107 | 2.74003 | 44 ft | 45 kts | 240° |
| 2026-05-05 10:53 | 39.55780 | 2.73337 | 44 ft | 127 kts | 239° |
| 2026-05-05 10:53 | 39.55278 | 2.72214 | 568 ft | 147 kts | 237° |
| 2026-05-05 10:54 | 39.54747 | 2.71156 | 1387 ft | 150 kts | 233° |
| 2026-05-05 10:54 | 39.54142 | 2.69974 | 2035 ft | 165 kts | 236° |
| 2026-05-05 10:54 | 39.53497 | 2.68676 | 2701 ft | 181 kts | 236° |
| 2026-05-05 10:54 | 39.52773 | 2.67245 | 3420 ft | 197 kts | 235° |
| 2026-05-05 10:55 | 39.52002 | 2.65715 | 4136 ft | 214 kts | 236° |
| 2026-05-05 10:55 | 39.51196 | 2.64081 | 5106 ft | 218 kts | 237° |
| 2026-05-05 10:55 | 39.50386 | 2.62460 | 6098 ft | 220 kts | 237° |
| 2026-05-05 10:55 | 39.49568 | 2.60838 | 7114 ft | 220 kts | 236° |
| 2026-05-05 10:56 | 39.48732 | 2.59188 | 8083 ft | 222 kts | 236° |
| 2026-05-05 10:56 | 39.47896 | 2.57538 | 9033 ft | 223 kts | 236° |
| 2026-05-05 10:56 | 39.47104 | 2.55833 | 9881 ft | 229 kts | 246° |
| 2026-05-05 10:56 | 39.46962 | 2.53750 | 10540 ft | 249 kts | 280° |
| 2026-05-05 10:57 | 39.47827 | 2.51716 | 11167 ft | 273 kts | 306° |
| 2026-05-05 10:57 | 39.49180 | 2.49925 | 11803 ft | 289 kts | 311° |
| 2026-05-05 10:57 | 39.50668 | 2.48047 | 12421 ft | 304 kts | 310° |
| 2026-05-05 10:57 | 39.52173 | 2.46046 | 13039 ft | 318 kts | 308° |
| 2026-05-05 10:58 | 39.53702 | 2.43925 | 13589 ft | 333 kts | 308° |
| 2026-05-05 10:58 | 39.55296 | 2.41670 | 14231 ft | 343 kts | 307° |
| 2026-05-05 10:58 | 39.56910 | 2.39381 | 15096 ft | 347 kts | 307° |
| 2026-05-05 10:58 | 39.58535 | 2.37076 | 15952 ft | 350 kts | 307° |
| 2026-05-05 10:59 | 39.60172 | 2.34753 | 16821 ft | 352 kts | 306° |
| 2026-05-05 10:59 | 39.61821 | 2.32412 | 17661 ft | 355 kts | 306° |
| 2026-05-05 10:59 | 39.63470 | 2.30067 | 18470 ft | 358 kts | 306° |
| 2026-05-05 10:59 | 39.65145 | 2.27682 | 19236 ft | 361 kts | 306° |
| 2026-05-05 11:00 | 39.66844 | 2.25259 | 20001 ft | 365 kts | 305° |
| 2026-05-05 11:00 | 39.68544 | 2.22835 | 20771 ft | 368 kts | 305° |
| 2026-05-05 11:00 | 39.70272 | 2.20371 | 21519 ft | 371 kts | 305° |
| 2026-05-05 11:00 | 39.71996 | 2.17910 | 22260 ft | 374 kts | 304° |
| 2026-05-05 11:01 | 39.73763 | 2.15385 | 22915 ft | 378 kts | 304° |
| 2026-05-05 11:01 | 39.75529 | 2.12858 | 23631 ft | 381 kts | 304° |
| 2026-05-05 11:01 | 39.77290 | 2.10342 | 24306 ft | 383 kts | 304° |
| 2026-05-05 11:01 | 39.79086 | 2.07769 | 24951 ft | 386 kts | 304° |
| 2026-05-05 11:02 | 39.80910 | 2.05154 | 25575 ft | 389 kts | 304° |
| 2026-05-05 11:02 | 39.82714 | 2.02566 | 26148 ft | 393 kts | 303° |
| 2026-05-05 11:02 | 39.84573 | 1.99899 | 26747 ft | 396 kts | 303° |
| 2026-05-05 11:02 | 39.86419 | 1.97249 | 27309 ft | 399 kts | 303° |
| 2026-05-05 11:03 | 39.88274 | 1.94583 | 27915 ft | 401 kts | 303° |
| 2026-05-05 11:03 | 39.90131 | 1.91913 | 28552 ft | 401 kts | 303° |
| 2026-05-05 11:03 | 39.91997 | 1.89234 | 29306 ft | 398 kts | 302° |
| 2026-05-05 11:03 | 39.93831 | 1.86603 | 30096 ft | 393 kts | 302° |
| 2026-05-05 11:04 | 39.95648 | 1.83995 | 30916 ft | 387 kts | 302° |
| 2026-05-05 11:04 | 39.97449 | 1.81408 | 31665 ft | 384 kts | 302° |
| 2026-05-05 11:04 | 39.99298 | 1.78930 | 32204 ft | 389 kts | 306° |
| 2026-05-05 11:04 | 40.01410 | 1.76609 | 32734 ft | 398 kts | 312° |
| 2026-05-05 11:05 | 40.03782 | 1.74675 | 32931 ft | 415 kts | 321° |
| 2026-05-05 11:05 | 40.09167 | 1.71725 | 32929 ft | 423 kts | 329° |
| 2026-05-05 11:06 | 40.14764 | 1.69090 | 32925 ft | 425 kts | 329° |
| 2026-05-05 11:06 | 40.20261 | 1.66442 | 32925 ft | 421 kts | 328° |